sensor_id;sensor_type;location;lat;lon;timestamp;temperature;humidity
10417;DHT22;62605;49.432;8.680;2023-05-10T00:00:26;14.10;99.90
10417;DHT22;62605;49.432;8.680;2023-05-10T00:03:07;14.10;99.90
10417;DHT22;62605;49.432;8.680;2023-05-10T00:08:48;14.10;99.90
10417;DHT22;62605;49.432;8.680;2023-05-10T00:11:19;14.10;99.90
10417;DHT22;62605;49.432;8.680;2023-05-10T00:13:48;14.10;99.90
10417;DHT22;62605;49.432;8.680;2023-05-10T00:16:17;14.10;99.90
10417;DHT22;62605;49.432;8.680;2023-05-10T00:18:45;14.10;99.90
10417;DHT22;62605;49.432;8.680;2023-05-10T00:21:12;14.00;99.90
10417;DHT22;62605;49.432;8.680;2023-05-10T00:23:40;14.00;99.90
10417;DHT22;62605;49.432;8.680;2023-05-10T00:26:26;14.00;99.90
10417;DHT22;62605;49.432;8.680;2023-05-10T00:28:55;14.00;99.90
10417;DHT22;62605;49.432;8.680;2023-05-10T00:33:55;13.90;99.90
10417;DHT22;62605;49.432;8.680;2023-05-10T00:36:24;13.90;99.90
10417;DHT22;62605;49.432;8.680;2023-05-10T00:38:55;13.90;99.90
10417;DHT22;62605;49.432;8.680;2023-05-10T00:41:26;13.90;99.90
10417;DHT22;62605;49.432;8.680;2023-05-10T00:44:03;13.90;99.90
10417;DHT22;62605;49.432;8.680;2023-05-10T04:10:12;13.40;99.90
10417;DHT22;62605;49.432;8.680;2023-05-10T04:12:41;13.40;99.90
10417;DHT22;62605;49.432;8.680;2023-05-10T04:17:48;13.40;99.90
10417;DHT22;62605;49.432;8.680;2023-05-10T04:20:18;13.30;99.90
10417;DHT22;62605;49.432;8.680;2023-05-10T04:33:25;13.40;99.90
10417;DHT22;62605;49.432;8.680;2023-05-10T04:35:52;13.40;99.90
10417;DHT22;62605;49.432;8.680;2023-05-10T04:43:31;13.40;99.90
10417;DHT22;62605;49.432;8.680;2023-05-10T04:51:15;13.50;99.90
10417;DHT22;62605;49.432;8.680;2023-05-10T04:56:43;13.40;99.90
10417;DHT22;62605;49.432;8.680;2023-05-10T05:01:46;13.40;99.90
10417;DHT22;62605;49.432;8.680;2023-05-10T05:09:45;13.50;99.90
10417;DHT22;62605;49.432;8.680;2023-05-10T05:12:20;13.50;99.90
10417;DHT22;62605;49.432;8.680;2023-05-10T05:19:55;13.60;99.90
10417;DHT22;62605;49.432;8.680;2023-05-10T05:22:23;13.60;99.90
10417;DHT22;62605;49.432;8.680;2023-05-10T05:24:54;13.70;99.90
10417;DHT22;62605;49.432;8.680;2023-05-10T05:27:22;13.60;99.90
10417;DHT22;62605;49.432;8.680;2023-05-10T05:29:49;13.60;99.90
10417;DHT22;62605;49.432;8.680;2023-05-10T05:32:17;13.70;99.90
10417;DHT22;62605;49.432;8.680;2023-05-10T05:34:45;13.80;99.90
10417;DHT22;62605;49.432;8.680;2023-05-10T05:37:13;13.80;99.90
10417;DHT22;62605;49.432;8.680;2023-05-10T05:39:41;13.80;99.90
10417;DHT22;62605;49.432;8.680;2023-05-10T05:42:10;13.80;99.90
10417;DHT22;62605;49.432;8.680;2023-05-10T05:44:39;13.80;99.90
10417;DHT22;62605;49.432;8.680;2023-05-10T05:47:06;13.90;99.90
10417;DHT22;62605;49.432;8.680;2023-05-10T05:49:33;13.80;99.90
10417;DHT22;62605;49.432;8.680;2023-05-10T05:52:02;13.80;99.90
10417;DHT22;62605;49.432;8.680;2023-05-10T05:54:29;13.80;99.90
10417;DHT22;62605;49.432;8.680;2023-05-10T05:56:57;13.70;99.90
10417;DHT22;62605;49.432;8.680;2023-05-10T05:59:26;13.90;99.90
10417;DHT22;62605;49.432;8.680;2023-05-10T06:01:54;13.90;99.90
10417;DHT22;62605;49.432;8.680;2023-05-10T06:04:22;13.90;99.90
10417;DHT22;62605;49.432;8.680;2023-05-10T06:06:48;13.90;99.90
10417;DHT22;62605;49.432;8.680;2023-05-10T06:09:15;13.90;99.90
10417;DHT22;62605;49.432;8.680;2023-05-10T06:11:42;13.90;99.90
10417;DHT22;62605;49.432;8.680;2023-05-10T06:14:09;14.00;99.90
10417;DHT22;62605;49.432;8.680;2023-05-10T06:16:38;13.90;99.90
10417;DHT22;62605;49.432;8.680;2023-05-10T06:19:05;13.90;99.90
10417;DHT22;62605;49.432;8.680;2023-05-10T06:21:32;13.90;99.90
10417;DHT22;62605;49.432;8.680;2023-05-10T06:23:59;13.90;99.90
10417;DHT22;62605;49.432;8.680;2023-05-10T06:26:26;14.00;99.90
10417;DHT22;62605;49.432;8.680;2023-05-10T06:28:52;14.00;99.90
10417;DHT22;62605;49.432;8.680;2023-05-10T06:31:20;14.00;99.90
10417;DHT22;62605;49.432;8.680;2023-05-10T06:33:48;14.00;99.90
10417;DHT22;62605;49.432;8.680;2023-05-10T06:36:15;14.00;99.90
10417;DHT22;62605;49.432;8.680;2023-05-10T06:38:42;14.20;99.90
10417;DHT22;62605;49.432;8.680;2023-05-10T06:41:09;14.30;99.90
10417;DHT22;62605;49.432;8.680;2023-05-10T06:43:37;14.30;99.90
10417;DHT22;62605;49.432;8.680;2023-05-10T06:46:05;14.20;99.90
10417;DHT22;62605;49.432;8.680;2023-05-10T06:48:33;14.40;99.90
10417;DHT22;62605;49.432;8.680;2023-05-10T06:51:02;14.40;99.90
10417;DHT22;62605;49.432;8.680;2023-05-10T06:53:29;14.50;99.90
10417;DHT22;62605;49.432;8.680;2023-05-10T06:55:55;14.50;99.90
10417;DHT22;62605;49.432;8.680;2023-05-10T06:58:23;14.70;99.90
10417;DHT22;62605;49.432;8.680;2023-05-10T07:00:50;14.60;99.90
10417;DHT22;62605;49.432;8.680;2023-05-10T07:03:17;14.60;99.90
10417;DHT22;62605;49.432;8.680;2023-05-10T07:05:44;14.60;99.90
10417;DHT22;62605;49.432;8.680;2023-05-10T07:08:13;14.50;99.90
10417;DHT22;62605;49.432;8.680;2023-05-10T07:10:40;14.50;99.90
10417;DHT22;62605;49.432;8.680;2023-05-10T07:13:07;14.50;99.90
10417;DHT22;62605;49.432;8.680;2023-05-10T07:15:35;14.60;99.90
10417;DHT22;62605;49.432;8.680;2023-05-10T07:18:02;14.60;99.90
10417;DHT22;62605;49.432;8.680;2023-05-10T07:20:31;14.70;99.90
10417;DHT22;62605;49.432;8.680;2023-05-10T07:22:58;14.70;99.90
10417;DHT22;62605;49.432;8.680;2023-05-10T07:25:27;14.90;99.90
10417;DHT22;62605;49.432;8.680;2023-05-10T07:27:54;15.10;99.90
10417;DHT22;62605;49.432;8.680;2023-05-10T07:30:21;15.20;99.90
10417;DHT22;62605;49.432;8.680;2023-05-10T07:32:48;15.20;99.90
10417;DHT22;62605;49.432;8.680;2023-05-10T07:35:15;15.40;99.90
10417;DHT22;62605;49.432;8.680;2023-05-10T07:37:43;15.50;99.90
10417;DHT22;62605;49.432;8.680;2023-05-10T07:40:10;15.50;99.90
10417;DHT22;62605;49.432;8.680;2023-05-10T07:42:39;15.50;99.90
10417;DHT22;62605;49.432;8.680;2023-05-10T07:45:06;15.60;99.90
10417;DHT22;62605;49.432;8.680;2023-05-10T07:47:34;15.50;99.90
10417;DHT22;62605;49.432;8.680;2023-05-10T07:50:01;15.50;99.90
10417;DHT22;62605;49.432;8.680;2023-05-10T07:52:28;15.60;99.90
10417;DHT22;62605;49.432;8.680;2023-05-10T07:54:55;15.60;99.90
10417;DHT22;62605;49.432;8.680;2023-05-10T07:57:22;15.70;99.90
10417;DHT22;62605;49.432;8.680;2023-05-10T07:59:51;15.70;99.90
10417;DHT22;62605;49.432;8.680;2023-05-10T08:02:18;15.70;99.90
10417;DHT22;62605;49.432;8.680;2023-05-10T08:04:45;15.60;99.90
10417;DHT22;62605;49.432;8.680;2023-05-10T08:07:12;15.70;99.90
10417;DHT22;62605;49.432;8.680;2023-05-10T08:09:39;15.90;99.90
10417;DHT22;62605;49.432;8.680;2023-05-10T08:12:06;15.90;99.90
10417;DHT22;62605;49.432;8.680;2023-05-10T08:14:33;15.80;99.90
10417;DHT22;62605;49.432;8.680;2023-05-10T08:17:03;15.60;99.90
10417;DHT22;62605;49.432;8.680;2023-05-10T08:19:30;15.50;99.90
10417;DHT22;62605;49.432;8.680;2023-05-10T08:21:57;15.60;99.90
10417;DHT22;62605;49.432;8.680;2023-05-10T08:24:24;15.80;99.90
10417;DHT22;62605;49.432;8.680;2023-05-10T08:26:51;15.90;99.90
10417;DHT22;62605;49.432;8.680;2023-05-10T08:29:18;15.90;99.90
10417;DHT22;62605;49.432;8.680;2023-05-10T08:31:45;16.00;99.90
10417;DHT22;62605;49.432;8.680;2023-05-10T08:34:14;16.20;99.90
10417;DHT22;62605;49.432;8.680;2023-05-10T08:36:41;16.30;99.90
10417;DHT22;62605;49.432;8.680;2023-05-10T08:39:08;16.40;99.90
10417;DHT22;62605;49.432;8.680;2023-05-10T08:41:36;16.30;99.90
10417;DHT22;62605;49.432;8.680;2023-05-10T08:44:08;16.20;99.90
10417;DHT22;62605;49.432;8.680;2023-05-10T08:46:37;16.00;99.90
10417;DHT22;62605;49.432;8.680;2023-05-10T08:49:06;16.00;99.90
10417;DHT22;62605;49.432;8.680;2023-05-10T08:51:36;16.00;99.90
10417;DHT22;62605;49.432;8.680;2023-05-10T08:54:07;15.90;99.90
10417;DHT22;62605;49.432;8.680;2023-05-10T08:56:34;16.20;99.90
10417;DHT22;62605;49.432;8.680;2023-05-10T08:59:01;16.20;99.90
10417;DHT22;62605;49.432;8.680;2023-05-10T09:01:31;16.30;99.90
10417;DHT22;62605;49.432;8.680;2023-05-10T09:03:58;16.50;99.90
10417;DHT22;62605;49.432;8.680;2023-05-10T09:06:25;16.50;99.90
10417;DHT22;62605;49.432;8.680;2023-05-10T09:08:54;16.80;99.90
10417;DHT22;62605;49.432;8.680;2023-05-10T09:11:21;16.70;99.90
10417;DHT22;62605;49.432;8.680;2023-05-10T09:13:50;16.50;99.90
10417;DHT22;62605;49.432;8.680;2023-05-10T09:16:18;16.20;99.90
10417;DHT22;62605;49.432;8.680;2023-05-10T09:18:46;16.30;99.90
10417;DHT22;62605;49.432;8.680;2023-05-10T09:21:13;16.30;99.90
10417;DHT22;62605;49.432;8.680;2023-05-10T09:23:43;16.30;99.90
10417;DHT22;62605;49.432;8.680;2023-05-10T09:26:12;16.10;99.90
10417;DHT22;62605;49.432;8.680;2023-05-10T09:28:50;15.90;99.90
10417;DHT22;62605;49.432;8.680;2023-05-10T09:31:18;15.70;99.90
10417;DHT22;62605;49.432;8.680;2023-05-10T09:33:46;15.60;99.90
10417;DHT22;62605;49.432;8.680;2023-05-10T09:36:13;15.50;99.90
10417;DHT22;62605;49.432;8.680;2023-05-10T09:38:47;15.80;99.90
10417;DHT22;62605;49.432;8.680;2023-05-10T09:41:20;15.90;99.90
10417;DHT22;62605;49.432;8.680;2023-05-10T09:43:48;16.10;99.90
10417;DHT22;62605;49.432;8.680;2023-05-10T09:46:16;16.10;99.90
10417;DHT22;62605;49.432;8.680;2023-05-10T09:48:44;16.10;99.90
10417;DHT22;62605;49.432;8.680;2023-05-10T09:51:19;16.30;99.90
10417;DHT22;62605;49.432;8.680;2023-05-10T09:53:47;16.20;99.90
10417;DHT22;62605;49.432;8.680;2023-05-10T09:56:35;16.20;99.90
10417;DHT22;62605;49.432;8.680;2023-05-10T09:59:04;16.20;99.90
10417;DHT22;62605;49.432;8.680;2023-05-10T10:01:32;16.20;99.90
10417;DHT22;62605;49.432;8.680;2023-05-10T10:04:03;16.10;99.90
10417;DHT22;62605;49.432;8.680;2023-05-10T10:06:35;16.00;99.90
10417;DHT22;62605;49.432;8.680;2023-05-10T10:09:04;15.90;99.90
10417;DHT22;62605;49.432;8.680;2023-05-10T10:11:35;16.40;99.90
10417;DHT22;62605;49.432;8.680;2023-05-10T10:14:03;16.40;99.90
10417;DHT22;62605;49.432;8.680;2023-05-10T10:16:33;16.60;99.90
10417;DHT22;62605;49.432;8.680;2023-05-10T10:19:00;16.80;99.90
10417;DHT22;62605;49.432;8.680;2023-05-10T10:21:28;16.80;99.90
10417;DHT22;62605;49.432;8.680;2023-05-10T10:23:56;16.60;99.90
10417;DHT22;62605;49.432;8.680;2023-05-10T10:26:24;16.50;99.90
10417;DHT22;62605;49.432;8.680;2023-05-10T10:29:03;16.00;99.90
10417;DHT22;62605;49.432;8.680;2023-05-10T10:31:40;15.70;99.90
10417;DHT22;62605;49.432;8.680;2023-05-10T10:34:09;15.50;99.90
10417;DHT22;62605;49.432;8.680;2023-05-10T10:36:44;15.10;99.90
10417;DHT22;62605;49.432;8.680;2023-05-10T10:39:12;14.90;99.90
10417;DHT22;62605;49.432;8.680;2023-05-10T10:41:41;14.70;99.90
10417;DHT22;62605;49.432;8.680;2023-05-10T10:44:34;14.60;99.90
10417;DHT22;62605;49.432;8.680;2023-05-10T10:47:04;14.60;99.90
10417;DHT22;62605;49.432;8.680;2023-05-10T10:49:38;14.70;99.90
10417;DHT22;62605;49.432;8.680;2023-05-10T10:52:23;14.90;99.90
10417;DHT22;62605;49.432;8.680;2023-05-10T10:54:52;15.10;99.90
10417;DHT22;62605;49.432;8.680;2023-05-10T10:57:21;15.00;99.90
10417;DHT22;62605;49.432;8.680;2023-05-10T10:59:50;15.20;99.90
10417;DHT22;62605;49.432;8.680;2023-05-10T11:02:34;15.30;99.90
10417;DHT22;62605;49.432;8.680;2023-05-10T11:05:34;15.40;99.90
10417;DHT22;62605;49.432;8.680;2023-05-10T11:08:18;15.70;99.90
10417;DHT22;62605;49.432;8.680;2023-05-10T11:11:06;15.90;99.90
10417;DHT22;62605;49.432;8.680;2023-05-10T11:13:37;16.20;99.90
10417;DHT22;62605;49.432;8.680;2023-05-10T11:16:17;16.50;99.90
10417;DHT22;62605;49.432;8.680;2023-05-10T11:18:56;16.80;99.90
10417;DHT22;62605;49.432;8.680;2023-05-10T11:21:24;16.70;99.90
10417;DHT22;62605;49.432;8.680;2023-05-10T11:23:53;17.10;99.90
10417;DHT22;62605;49.432;8.680;2023-05-10T11:26:22;17.10;99.90
10417;DHT22;62605;49.432;8.680;2023-05-10T11:28:52;17.40;99.90
10417;DHT22;62605;49.432;8.680;2023-05-10T11:31:22;17.50;46.00
10417;DHT22;62605;49.432;8.680;2023-05-10T11:33:53;17.40;99.90
10417;DHT22;62605;49.432;8.680;2023-05-10T11:36:27;17.20;99.90
10417;DHT22;62605;49.432;8.680;2023-05-10T11:38:55;17.20;99.90
10417;DHT22;62605;49.432;8.680;2023-05-10T11:41:23;17.10;99.90
10417;DHT22;62605;49.432;8.680;2023-05-10T11:43:53;16.90;99.90
10417;DHT22;62605;49.432;8.680;2023-05-10T11:46:24;16.90;99.90
10417;DHT22;62605;49.432;8.680;2023-05-10T11:48:56;17.00;99.90
10417;DHT22;62605;49.432;8.680;2023-05-10T11:51:25;17.10;99.90
10417;DHT22;62605;49.432;8.680;2023-05-10T11:53:54;17.20;99.90
10417;DHT22;62605;49.432;8.680;2023-05-10T11:56:21;17.20;99.90
10417;DHT22;62605;49.432;8.680;2023-05-10T11:58:53;17.50;99.90
10417;DHT22;62605;49.432;8.680;2023-05-10T12:01:22;17.40;99.90
10417;DHT22;62605;49.432;8.680;2023-05-10T12:03:50;17.40;99.90
10417;DHT22;62605;49.432;8.680;2023-05-10T12:06:18;17.60;99.90
10417;DHT22;62605;49.432;8.680;2023-05-10T12:08:47;17.90;99.90
10417;DHT22;62605;49.432;8.680;2023-05-10T12:11:18;18.10;99.90
10417;DHT22;62605;49.432;8.680;2023-05-10T12:13:47;18.00;99.90
10417;DHT22;62605;49.432;8.680;2023-05-10T12:16:17;18.10;99.90
10417;DHT22;62605;49.432;8.680;2023-05-10T12:18:48;18.40;99.90
10417;DHT22;62605;49.432;8.680;2023-05-10T12:21:16;18.50;99.90
10417;DHT22;62605;49.432;8.680;2023-05-10T12:23:46;18.60;99.90
10417;DHT22;62605;49.432;8.680;2023-05-10T12:26:14;18.40;99.90
10417;DHT22;62605;49.432;8.680;2023-05-10T12:28:42;18.70;99.90
10417;DHT22;62605;49.432;8.680;2023-05-10T12:31:09;18.60;99.90
10417;DHT22;62605;49.432;8.680;2023-05-10T12:33:38;18.20;99.90
10417;DHT22;62605;49.432;8.680;2023-05-10T12:36:09;18.30;99.90
10417;DHT22;62605;49.432;8.680;2023-05-10T12:38:39;18.40;99.90
10417;DHT22;62605;49.432;8.680;2023-05-10T12:41:09;18.30;99.90
10417;DHT22;62605;49.432;8.680;2023-05-10T12:43:37;18.30;99.90
10417;DHT22;62605;49.432;8.680;2023-05-10T12:46:06;18.30;99.90
10417;DHT22;62605;49.432;8.680;2023-05-10T12:48:34;18.30;99.90
10417;DHT22;62605;49.432;8.680;2023-05-10T12:51:01;18.40;99.90
10417;DHT22;62605;49.432;8.680;2023-05-10T12:53:30;18.40;99.90
10417;DHT22;62605;49.432;8.680;2023-05-10T12:55:59;18.80;99.90
10417;DHT22;62605;49.432;8.680;2023-05-10T12:58:26;18.30;99.90
10417;DHT22;62605;49.432;8.680;2023-05-10T13:00:53;18.20;99.90
10417;DHT22;62605;49.432;8.680;2023-05-10T13:03:21;18.10;99.90
10417;DHT22;62605;49.432;8.680;2023-05-10T13:05:49;18.20;99.90
10417;DHT22;62605;49.432;8.680;2023-05-10T13:08:16;18.40;99.90
10417;DHT22;62605;49.432;8.680;2023-05-10T13:10:44;18.70;99.90
10417;DHT22;62605;49.432;8.680;2023-05-10T13:13:11;18.60;99.90
10417;DHT22;62605;49.432;8.680;2023-05-10T13:15:39;18.90;99.90
10417;DHT22;62605;49.432;8.680;2023-05-10T13:18:06;18.80;99.90
10417;DHT22;62605;49.432;8.680;2023-05-10T13:20:33;18.70;99.90
10417;DHT22;62605;49.432;8.680;2023-05-10T13:23:00;18.80;99.90
10417;DHT22;62605;49.432;8.680;2023-05-10T13:25:28;18.80;99.90
10417;DHT22;62605;49.432;8.680;2023-05-10T13:27:57;18.80;99.90
10417;DHT22;62605;49.432;8.680;2023-05-10T13:30:24;18.20;99.90
10417;DHT22;62605;49.432;8.680;2023-05-10T13:32:51;18.20;99.90
10417;DHT22;62605;49.432;8.680;2023-05-10T13:35:18;18.10;99.90
10417;DHT22;62605;49.432;8.680;2023-05-10T13:37:45;18.70;99.90
10417;DHT22;62605;49.432;8.680;2023-05-10T13:40:12;19.10;99.90
10417;DHT22;62605;49.432;8.680;2023-05-10T13:42:40;19.20;99.90
10417;DHT22;62605;49.432;8.680;2023-05-10T13:45:10;19.20;99.90
10417;DHT22;62605;49.432;8.680;2023-05-10T13:47:37;18.80;99.90
10417;DHT22;62605;49.432;8.680;2023-05-10T13:50:05;18.80;99.90
10417;DHT22;62605;49.432;8.680;2023-05-10T13:52:32;18.80;99.90
10417;DHT22;62605;49.432;8.680;2023-05-10T13:54:59;18.80;99.90
10417;DHT22;62605;49.432;8.680;2023-05-10T13:57:26;18.70;99.90
10417;DHT22;62605;49.432;8.680;2023-05-10T13:59:54;18.60;90.10
10417;DHT22;62605;49.432;8.680;2023-05-10T14:02:24;18.60;98.80
10417;DHT22;62605;49.432;8.680;2023-05-10T14:04:52;18.40;76.30
10417;DHT22;62605;49.432;8.680;2023-05-10T14:07:19;18.50;69.40
10417;DHT22;62605;49.432;8.680;2023-05-10T14:09:47;18.60;25.80
10417;DHT22;62605;49.432;8.680;2023-05-10T14:12:14;18.80;17.30
10417;DHT22;62605;49.432;8.680;2023-05-10T14:14:41;18.50;1.00
10417;DHT22;62605;49.432;8.680;2023-05-10T14:17:08;18.70;1.00
10417;DHT22;62605;49.432;8.680;2023-05-10T14:19:38;18.60;1.00
10417;DHT22;62605;49.432;8.680;2023-05-10T14:22:05;18.50;1.00
10417;DHT22;62605;49.432;8.680;2023-05-10T14:24:32;18.30;1.00
10417;DHT22;62605;49.432;8.680;2023-05-10T14:26:59;18.60;1.00
10417;DHT22;62605;49.432;8.680;2023-05-10T14:29:26;18.80;1.00
10417;DHT22;62605;49.432;8.680;2023-05-10T14:31:53;18.60;1.00
10417;DHT22;62605;49.432;8.680;2023-05-10T14:34:20;18.90;1.00
10417;DHT22;62605;49.432;8.680;2023-05-10T14:36:48;18.70;1.00
10417;DHT22;62605;49.432;8.680;2023-05-10T14:39:15;18.80;1.00
10417;DHT22;62605;49.432;8.680;2023-05-10T14:41:42;18.90;1.00
10417;DHT22;62605;49.432;8.680;2023-05-10T14:44:10;18.90;1.00
10417;DHT22;62605;49.432;8.680;2023-05-10T14:46:37;19.00;1.00
10417;DHT22;62605;49.432;8.680;2023-05-10T14:49:04;18.70;1.00
10417;DHT22;62605;49.432;8.680;2023-05-10T14:51:31;18.90;1.00
10417;DHT22;62605;49.432;8.680;2023-05-10T14:54:00;19.00;1.00
10417;DHT22;62605;49.432;8.680;2023-05-10T14:56:28;18.90;1.00
10417;DHT22;62605;49.432;8.680;2023-05-10T14:58:56;18.70;1.00
10417;DHT22;62605;49.432;8.680;2023-05-10T15:01:23;18.80;1.00
10417;DHT22;62605;49.432;8.680;2023-05-10T15:03:49;18.40;1.00
10417;DHT22;62605;49.432;8.680;2023-05-10T15:06:17;18.50;1.00
10417;DHT22;62605;49.432;8.680;2023-05-10T15:08:49;18.70;1.00
10417;DHT22;62605;49.432;8.680;2023-05-10T15:11:18;18.80;1.00
10417;DHT22;62605;49.432;8.680;2023-05-10T15:13:45;18.20;1.00
10417;DHT22;62605;49.432;8.680;2023-05-10T15:16:12;18.40;1.00
10417;DHT22;62605;49.432;8.680;2023-05-10T15:18:39;18.30;1.00
10417;DHT22;62605;49.432;8.680;2023-05-10T15:21:06;18.40;1.00
10417;DHT22;62605;49.432;8.680;2023-05-10T15:23:33;18.40;1.00
10417;DHT22;62605;49.432;8.680;2023-05-10T15:26:00;18.50;1.00
10417;DHT22;62605;49.432;8.680;2023-05-10T15:28:29;18.40;1.00
10417;DHT22;62605;49.432;8.680;2023-05-10T15:30:56;18.50;1.00
10417;DHT22;62605;49.432;8.680;2023-05-10T15:33:23;18.30;1.00
10417;DHT22;62605;49.432;8.680;2023-05-10T15:35:51;18.10;1.00
10417;DHT22;62605;49.432;8.680;2023-05-10T15:38:19;18.40;1.00
10417;DHT22;62605;49.432;8.680;2023-05-10T15:40:46;18.30;1.00
10417;DHT22;62605;49.432;8.680;2023-05-10T15:43:13;18.40;1.00
10417;DHT22;62605;49.432;8.680;2023-05-10T15:45:42;18.50;1.00
10417;DHT22;62605;49.432;8.680;2023-05-10T15:48:09;18.70;1.00
10417;DHT22;62605;49.432;8.680;2023-05-10T15:50:35;18.90;1.00
10417;DHT22;62605;49.432;8.680;2023-05-10T15:53:02;19.00;1.00
10417;DHT22;62605;49.432;8.680;2023-05-10T15:55:29;19.10;1.00
10417;DHT22;62605;49.432;8.680;2023-05-10T15:57:56;19.80;1.00
10417;DHT22;62605;49.432;8.680;2023-05-10T16:00:23;19.90;1.00
10417;DHT22;62605;49.432;8.680;2023-05-10T16:02:52;20.10;1.00
10417;DHT22;62605;49.432;8.680;2023-05-10T16:05:19;19.80;1.00
10417;DHT22;62605;49.432;8.680;2023-05-10T16:07:46;20.00;1.00
10417;DHT22;62605;49.432;8.680;2023-05-10T16:10:14;19.80;1.00
10417;DHT22;62605;49.432;8.680;2023-05-10T16:12:41;19.40;1.00
10417;DHT22;62605;49.432;8.680;2023-05-10T16:15:08;19.70;1.00
10417;DHT22;62605;49.432;8.680;2023-05-10T16:17:35;19.80;1.00
10417;DHT22;62605;49.432;8.680;2023-05-10T16:20:05;19.60;1.00
10417;DHT22;62605;49.432;8.680;2023-05-10T16:22:32;19.30;1.00
10417;DHT22;62605;49.432;8.680;2023-05-10T16:24:59;19.00;1.00
10417;DHT22;62605;49.432;8.680;2023-05-10T16:27:26;18.80;1.00
10417;DHT22;62605;49.432;8.680;2023-05-10T16:29:54;18.70;1.00
10417;DHT22;62605;49.432;8.680;2023-05-10T16:32:21;18.70;1.00
10417;DHT22;62605;49.432;8.680;2023-05-10T16:34:48;18.60;1.00
10417;DHT22;62605;49.432;8.680;2023-05-10T16:37:19;18.60;1.00
10417;DHT22;62605;49.432;8.680;2023-05-10T16:39:46;18.50;1.00
10417;DHT22;62605;49.432;8.680;2023-05-10T16:42:13;18.40;1.00
10417;DHT22;62605;49.432;8.680;2023-05-10T16:44:40;18.50;1.00
10417;DHT22;62605;49.432;8.680;2023-05-10T16:47:07;18.60;1.00
10417;DHT22;62605;49.432;8.680;2023-05-10T16:49:35;18.60;1.00
10417;DHT22;62605;49.432;8.680;2023-05-10T16:52:02;18.90;99.90
10417;DHT22;62605;49.432;8.680;2023-05-10T17:06:34;18.10;99.90
10417;DHT22;62605;49.432;8.680;2023-05-10T17:09:02;18.10;99.90
10417;DHT22;62605;49.432;8.680;2023-05-10T17:11:30;18.00;99.90
10417;DHT22;62605;49.432;8.680;2023-05-10T17:13:57;18.00;99.90
10417;DHT22;62605;49.432;8.680;2023-05-10T17:16:24;18.00;99.90
10417;DHT22;62605;49.432;8.680;2023-05-10T17:18:51;17.90;99.90
10417;DHT22;62605;49.432;8.680;2023-05-10T17:21:18;17.80;99.90
10417;DHT22;62605;49.432;8.680;2023-05-10T17:23:47;17.70;99.90
10417;DHT22;62605;49.432;8.680;2023-05-10T17:26:16;17.60;99.90
10417;DHT22;62605;49.432;8.680;2023-05-10T17:28:43;17.60;99.90
10417;DHT22;62605;49.432;8.680;2023-05-10T17:31:10;17.40;99.90
10417;DHT22;62605;49.432;8.680;2023-05-10T17:33:37;17.40;99.90
10417;DHT22;62605;49.432;8.680;2023-05-10T17:36:04;17.20;99.90
10417;DHT22;62605;49.432;8.680;2023-05-10T17:38:31;17.20;1.00
10417;DHT22;62605;49.432;8.680;2023-05-10T17:40:59;17.20;1.00
10417;DHT22;62605;49.432;8.680;2023-05-10T17:43:26;17.10;1.00
10417;DHT22;62605;49.432;8.680;2023-05-10T17:45:53;17.10;1.00
10417;DHT22;62605;49.432;8.680;2023-05-10T17:48:20;17.10;1.00
10417;DHT22;62605;49.432;8.680;2023-05-10T17:50:48;17.10;1.00
10417;DHT22;62605;49.432;8.680;2023-05-10T17:53:15;17.00;1.00
10417;DHT22;62605;49.432;8.680;2023-05-10T17:55:42;17.00;1.00
10417;DHT22;62605;49.432;8.680;2023-05-10T17:58:11;16.90;1.00
10417;DHT22;62605;49.432;8.680;2023-05-10T18:00:38;16.80;1.00
10417;DHT22;62605;49.432;8.680;2023-05-10T18:03:05;16.70;1.00
10417;DHT22;62605;49.432;8.680;2023-05-10T18:05:34;16.70;1.00
10417;DHT22;62605;49.432;8.680;2023-05-10T18:08:02;16.60;1.00
10417;DHT22;62605;49.432;8.680;2023-05-10T18:10:29;16.60;1.00
10417;DHT22;62605;49.432;8.680;2023-05-10T18:12:56;16.50;1.00
10417;DHT22;62605;49.432;8.680;2023-05-10T18:15:25;16.50;1.00
10417;DHT22;62605;49.432;8.680;2023-05-10T18:17:53;16.30;1.00
10417;DHT22;62605;49.432;8.680;2023-05-10T18:20:20;16.20;1.00
10417;DHT22;62605;49.432;8.680;2023-05-10T18:22:47;16.20;1.00
10417;DHT22;62605;49.432;8.680;2023-05-10T18:25:14;16.20;1.00
10417;DHT22;62605;49.432;8.680;2023-05-10T18:27:41;16.20;1.00
10417;DHT22;62605;49.432;8.680;2023-05-10T18:30:08;16.10;1.00
10417;DHT22;62605;49.432;8.680;2023-05-10T18:32:38;16.00;1.00
10417;DHT22;62605;49.432;8.680;2023-05-10T18:35:06;16.00;1.00
10417;DHT22;62605;49.432;8.680;2023-05-10T18:37:34;16.00;1.00
10417;DHT22;62605;49.432;8.680;2023-05-10T18:40:01;16.00;1.00
10417;DHT22;62605;49.432;8.680;2023-05-10T18:42:29;16.00;1.00
10417;DHT22;62605;49.432;8.680;2023-05-10T18:44:56;15.90;1.00
10417;DHT22;62605;49.432;8.680;2023-05-10T18:47:23;15.90;1.00
10417;DHT22;62605;49.432;8.680;2023-05-10T18:49:52;15.80;1.00
10417;DHT22;62605;49.432;8.680;2023-05-10T18:52:19;15.80;1.00
10417;DHT22;62605;49.432;8.680;2023-05-10T18:54:47;15.70;1.00
10417;DHT22;62605;49.432;8.680;2023-05-10T18:57:15;15.70;1.00
10417;DHT22;62605;49.432;8.680;2023-05-10T18:59:43;15.60;1.00
10417;DHT22;62605;49.432;8.680;2023-05-10T19:02:10;15.60;1.00
10417;DHT22;62605;49.432;8.680;2023-05-10T19:04:37;15.50;1.00
10417;DHT22;62605;49.432;8.680;2023-05-10T19:07:06;15.50;1.00
10417;DHT22;62605;49.432;8.680;2023-05-10T19:09:32;15.50;1.00
10417;DHT22;62605;49.432;8.680;2023-05-10T19:12:00;15.50;1.00
10417;DHT22;62605;49.432;8.680;2023-05-10T19:14:27;15.50;1.00
10417;DHT22;62605;49.432;8.680;2023-05-10T19:16:54;15.40;1.00
10417;DHT22;62605;49.432;8.680;2023-05-10T19:19:21;15.40;1.00
10417;DHT22;62605;49.432;8.680;2023-05-10T19:21:48;15.30;21.60
10417;DHT22;62605;49.432;8.680;2023-05-10T19:24:17;15.20;99.90
10417;DHT22;62605;49.432;8.680;2023-05-10T19:26:45;15.10;99.90
10417;DHT22;62605;49.432;8.680;2023-05-10T19:29:11;15.10;93.70
10417;DHT22;62605;49.432;8.680;2023-05-10T19:31:39;15.00;99.90
10417;DHT22;62605;49.432;8.680;2023-05-10T19:34:06;15.00;99.90
10417;DHT22;62605;49.432;8.680;2023-05-10T19:36:33;15.00;99.90
10417;DHT22;62605;49.432;8.680;2023-05-10T19:38:59;15.00;99.70
10417;DHT22;62605;49.432;8.680;2023-05-10T19:41:28;15.10;21.50
10417;DHT22;62605;49.432;8.680;2023-05-10T19:43:55;15.10;56.50
10417;DHT22;62605;49.432;8.680;2023-05-10T19:46:22;15.10;25.00
10417;DHT22;62605;49.432;8.680;2023-05-10T19:48:49;15.10;32.70
10417;DHT22;62605;49.432;8.680;2023-05-10T19:51:16;15.00;6.80
10417;DHT22;62605;49.432;8.680;2023-05-10T19:53:43;15.00;1.00
10417;DHT22;62605;49.432;8.680;2023-05-10T19:56:10;15.00;16.10
10417;DHT22;62605;49.432;8.680;2023-05-10T19:58:39;15.00;21.10
10417;DHT22;62605;49.432;8.680;2023-05-10T20:01:06;14.90;1.00
10417;DHT22;62605;49.432;8.680;2023-05-10T20:03:33;14.90;1.00